Time;durP1;ratioP1;P1;durP2;ratioP2;P2;SDS_P1;SDS_P2;PMS_P1;PMS_P2;Temp;Humidity;BMP_temperature;BMP_pressure;BME280_temperature;BME280_humidity;BME280_pressure;Samples;Min_cycle;Max_cycle;Signal;HPM_P1;HPM_P2
2023/12/22 00:03:42;;;;;;;;;;;;;;;;;;;;;
2023/12/22 00:06:54;;;;;;;;;;;;;;;;;;;;;
2023/12/22 00:22:34;;;;;;;20.70;2.40;;;;;;;;;;6052330;23;20355;-90
2023/12/22 00:25:41;;;;;;;9.45;2.58;;;;;;;;;;6077208;23;20018;-90
2023/12/22 00:28:28;;;;;;;10.70;2.97;;;;;;;;;;6114565;23;20126;-90
2023/12/22 00:34:37;;;;;;;13.63;2.25;;;;;;;;;;6163701;23;20020;-89
2023/12/22 00:53:36;;;;;;;10.88;1.90;;;;;;;;;;6258966;22;20024;-90
2023/12/22 00:56:05;;;;;;;16.08;2.20;;;;;;;;;;6182331;22;20447;-90
2023/12/22 00:58:31;;;;;;;14.82;2.10;;;;;;;;;;6211898;22;20558;-89
2023/12/22 01:00:58;;;;;;;15.98;1.92;;;;;;;;;;6209850;22;20011;-89
2023/12/22 01:03:24;;;;;;;11.70;1.50;;;;;;;;;;6212269;22;20450;-89
2023/12/22 01:05:50;;;;;;;20.42;2.85;;;;;;;;;;6211516;22;20386;-90
2023/12/22 01:08:16;;;;;;;17.13;2.63;;;;;;;;;;6210273;22;20344;-89
2023/12/22 01:10:42;;;;;;;15.48;2.25;;;;;;;;;;6212976;22;20016;-89
2023/12/22 01:13:08;;;;;;;17.42;3.00;;;;;;;;;;6180666;22;20020;-89
2023/12/22 01:15:34;;;;;;;21.25;3.55;;;;;;;;;;6236569;22;20070;-89
2023/12/22 01:18:00;;;;;;;13.13;3.03;;;;;;;;;;6208857;22;20019;-89
2023/12/22 01:20:26;;;;;;;19.80;2.33;;;;;;;;;;6208491;22;20011;-89
2023/12/22 01:22:54;;;;;;;14.80;2.65;;;;;;;;;;6184413;22;20121;-89
2023/12/22 01:25:20;;;;;;;;;;;;;;;;;;6213814;22;20062;-89
2023/12/22 01:27:48;;;;;;;11.02;2.53;;;;;;;;;;6213665;22;19915;-89
2023/12/22 01:30:14;;;;;;;25.58;3.40;;;;;;;;;;6235471;22;20043;-89
2023/12/22 01:32:40;;;;;;;12.57;1.95;;;;;;;;;;6188182;22;20157;-89
2023/12/22 01:35:09;;;;;;;12.57;3.10;;;;;;;;;;6260862;22;20019;-90
2023/12/22 01:37:36;;;;;;;17.20;2.60;;;;;;;;;;6209426;22;20020;-89
2023/12/22 01:40:02;;;;;;;11.25;2.25;;;;;;;;;;6232148;22;20026;-89
2023/12/22 01:42:29;;;;;;;10.60;1.98;;;;;;;;;;6187362;22;20061;-88
2023/12/22 01:44:55;;;;;;;16.13;2.67;;;;;;;;;;6207784;22;20069;-90
2023/12/22 01:47:21;;;;;;;13.63;1.98;;;;;;;;;;6210957;22;20023;-89
2023/12/22 01:49:48;;;;;;;7.82;2.67;;;;;;;;;;6186073;22;20020;-89
2023/12/22 01:52:14;;;;;;;13.18;2.35;;;;;;;;;;6200973;23;20024;-89
2023/12/22 01:54:40;;;;;;;14.43;2.30;;;;;;;;;;6156653;23;20437;-89
2023/12/22 01:57:06;;;;;;;15.05;2.60;;;;;;;;;;6179223;23;20345;-90
2023/12/22 01:59:34;;;;;;;13.43;2.05;;;;;;;;;;6180821;23;20397;-90
2023/12/22 02:02:00;;;;;;;13.18;2.00;;;;;;;;;;6176705;23;20722;-89
2023/12/22 02:04:27;;;;;;;16.02;2.28;;;;;;;;;;6181332;23;20103;-90
2023/12/22 02:06:53;;;;;;;10.32;1.95;;;;;;;;;;6178109;23;20095;-92
2023/12/22 02:09:19;;;;;;;12.18;1.85;;;;;;;;;;6155380;23;20027;-89
2023/12/22 02:11:45;;;;;;;9.70;1.75;;;;;;;;;;6179188;23;20023;-88
2023/12/22 02:14:11;;;;;;;14.00;1.67;;;;;;;;;;6201908;23;20047;-89
2023/12/22 02:16:37;;;;;;;13.90;2.42;;;;;;;;;;6158654;23;20026;-90
2023/12/22 02:19:05;;;;;;;9.13;1.42;;;;;;;;;;6201950;23;20016;-90
2023/12/22 02:21:31;;;;;;;14.90;2.22;;;;;;;;;;6206339;23;20406;-89
2023/12/22 02:23:57;;;;;;;13.77;2.10;;;;;;;;;;6153964;23;20020;-89
2023/12/22 02:26:26;;;;;;;8.68;2.03;;;;;;;;;;6156712;23;20024;-89
2023/12/22 02:28:52;;;;;;;6.03;1.50;;;;;;;;;;6203734;23;20024;-89
2023/12/22 02:31:18;;;;;;;13.10;2.05;;;;;;;;;;6179485;23;20024;-89
2023/12/22 02:33:44;;;;;;;8.93;2.00;;;;;;;;;;6181811;23;20012;-89
2023/12/22 02:36:10;;;;;;;17.15;1.85;;;;;;;;;;6178917;23;20023;-90
2023/12/22 02:38:36;;;;;;;16.83;2.70;;;;;;;;;;6155724;23;20539;-88
2023/12/22 02:41:02;;;;;;;9.57;2.20;;;;;;;;;;6154031;23;20023;-89
2023/12/22 02:43:29;;;;;;;11.50;2.33;;;;;;;;;;6158325;23;20026;-89
2023/12/22 02:45:55;;;;;;;11.88;2.15;;;;;;;;;;6180264;23;20774;-91
2023/12/22 02:48:21;;;;;;;8.27;2.03;;;;;;;;;;6156565;23;20474;-89
2023/12/22 02:50:47;;;;;;;12.63;2.58;;;;;;;;;;6180385;23;20048;-89
2023/12/22 02:53:13;;;;;;;11.75;1.98;;;;;;;;;;6176595;22;20091;-89
2023/12/22 02:55:39;;;;;;;7.28;1.83;;;;;;;;;;6237587;22;20023;-89
2023/12/22 02:58:05;;;;;;;8.30;1.95;;;;;;;;;;6208908;22;20023;-89
2023/12/22 03:00:31;;;;;;;12.55;2.05;;;;;;;;;;6236948;22;20105;-89
2023/12/22 03:02:57;;;;;;;10.38;2.42;;;;;;;;;;6208678;22;20018;-89
2023/12/22 03:05:23;;;;;;;15.38;2.08;;;;;;;;;;6212690;22;20007;-89
2023/12/22 03:07:49;;;;;;;14.90;2.08;;;;;;;;;;6214130;22;20118;-89
2023/12/22 03:10:15;;;;;;;14.00;1.85;;;;;;;;;;6210137;22;20016;-89
2023/12/22 03:12:41;;;;;;;11.00;2.17;;;;;;;;;;6213356;22;20410;-90
2023/12/22 03:15:07;;;;;;;8.27;2.65;;;;;;;;;;6209395;22;20054;-88
2023/12/22 03:17:33;;;;;;;13.15;1.70;;;;;;;;;;6237336;22;20802;-89
2023/12/22 03:19:59;;;;;;;8.40;1.90;;;;;;;;;;6235866;22;20648;-89
2023/12/22 03:22:25;;;;;;;10.00;1.88;;;;;;;;;;6189136;22;20023;-89
2023/12/22 03:24:51;;;;;;;10.77;1.88;;;;;;;;;;6186362;22;20026;-89
2023/12/22 03:27:18;;;;;;;13.50;2.03;;;;;;;;;;6189067;22;20025;-89
2023/12/22 03:29:44;;;;;;;10.00;1.60;;;;;;;;;;6208789;22;20020;-88
2023/12/22 03:32:10;;;;;;;6.95;1.40;;;;;;;;;;6209918;22;20778;-89
2023/12/22 03:34:36;;;;;;;11.27;1.63;;;;;;;;;;6212104;22;20344;-89
2023/12/22 03:37:02;;;;;;;8.52;1.83;;;;;;;;;;6235461;22;20020;-89
2023/12/22 03:39:28;;;;;;;8.80;1.20;;;;;;;;;;6236778;22;20012;-89
2023/12/22 03:41:54;;;;;;;5.15;1.52;;;;;;;;;;6186220;22;20066;-89
2023/12/22 03:44:20;;;;;;;11.80;1.92;;;;;;;;;;6188659;22;20019;-88
2023/12/22 03:46:46;;;;;;;11.70;1.70;;;;;;;;;;6210814;22;20042;-89
2023/12/22 03:49:12;;;;;;;9.02;1.60;;;;;;;;;;6235030;22;20020;-89
2023/12/22 03:51:41;;;;;;;8.35;1.98;;;;;;;;;;6237424;22;20016;-89
2023/12/22 03:54:07;;;;;;;;;;;;;;;;;;6186656;22;20073;-89
2023/12/22 03:56:33;;;;;;;12.30;1.70;;;;;;;;;;6236273;22;19915;-89
2023/12/22 03:58:59;;;;;;;12.35;1.70;;;;;;;;;;6183154;22;20554;-89
2023/12/22 04:01:25;;;;;;;11.27;1.90;;;;;;;;;;6212142;22;20012;-90
2023/12/22 04:03:51;;;;;;;10.68;2.22;;;;;;;;;;6211482;22;20015;-90
2023/12/22 04:06:17;;;;;;;4.30;1.45;;;;;;;;;;6187103;22;20020;-89
2023/12/22 04:08:43;;;;;;;7.60;1.35;;;;;;;;;;6210985;22;20523;-89
2023/12/22 04:11:09;;;;;;;11.48;2.10;;;;;;;;;;6210760;22;20137;-89
2023/12/22 04:13:35;;;;;;;7.22;1.92;;;;;;;;;;6188356;22;20047;-90
2023/12/22 04:16:04;;;;;;;10.75;1.77;;;;;;;;;;6210635;22;20082;-89
2023/12/22 04:18:31;;;;;;;13.77;2.45;;;;;;;;;;6187437;22;20026;-90
2023/12/22 04:20:57;;;;;;;9.00;1.50;;;;;;;;;;6210738;22;20012;-90
2023/12/22 04:23:23;;;;;;;8.30;1.67;;;;;;;;;;6188076;22;20019;-89
2023/12/22 04:25:49;;;;;;;16.02;2.33;;;;;;;;;;6235912;22;20073;-88
2023/12/22 04:28:16;;;;;;;12.70;2.47;;;;;;;;;;6185119;22;20030;-89
2023/12/22 04:30:42;;;;;;;12.35;2.15;;;;;;;;;;6211164;22;20027;-89
2023/12/22 04:33:08;;;;;;;9.80;2.35;;;;;;;;;;6209984;22;20325;-90
2023/12/22 04:35:34;;;;;;;11.07;1.98;;;;;;;;;;6237052;22;20023;-89
2023/12/22 04:38:00;;;;;;;11.15;2.15;;;;;;;;;;6183110;22;20437;-90
2023/12/22 04:40:27;;;;;;;14.00;2.10;;;;;;;;;;6236277;22;20043;-89
2023/12/22 04:42:53;;;;;;;7.97;1.75;;;;;;;;;;6235867;22;20019;-89
2023/12/22 04:45:19;;;;;;;12.13;2.47;;;;;;;;;;6236651;22;20011;-89
2023/12/22 04:47:45;;;;;;;15.52;2.72;;;;;;;;;;6237621;22;20019;-90
2023/12/22 04:50:11;;;;;;;19.95;2.38;;;;;;;;;;6234174;22;20024;-90
2023/12/22 04:52:38;;;;;;;14.43;1.88;;;;;;;;;;6173807;23;20024;-89
2023/12/22 04:55:04;;;;;;;14.63;2.40;;;;;;;;;;6231791;23;20100;-89
2023/12/22 04:57:30;;;;;;;10.60;1.95;;;;;;;;;;6179322;23;20445;-89
2023/12/22 04:59:56;;;;;;;17.50;2.97;;;;;;;;;;6178071;23;20474;-90
2023/12/22 05:02:22;;;;;;;18.20;2.47;;;;;;;;;;6206526;23;20027;-89
2023/12/22 05:04:48;;;;;;;14.60;2.10;;;;;;;;;;6206875;23;20050;-90
2023/12/22 05:07:14;;;;;;;15.68;2.47;;;;;;;;;;6179047;23;20095;-89
2023/12/22 05:09:41;;;;;;;15.07;2.97;;;;;;;;;;6206740;23;20048;-89
2023/12/22 05:12:07;;;;;;;14.25;2.20;;;;;;;;;;6156126;23;20019;-90
2023/12/22 05:14:34;;;;;;;20.23;3.22;;;;;;;;;;6203967;23;20023;-89
2023/12/22 05:17:00;;;;;;;12.43;2.60;;;;;;;;;;6230626;23;20022;-90
2023/12/22 05:19:26;;;;;;;9.88;2.00;;;;;;;;;;6181218;23;20436;-90
2023/12/22 05:21:55;;;;;;;11.40;1.58;;;;;;;;;;6179233;23;20016;-90
2023/12/22 05:24:22;;;;;;;15.25;2.45;;;;;;;;;;6155946;23;20024;-90
2023/12/22 05:26:48;;;;;;;17.33;2.90;;;;;;;;;;6205639;23;20015;-89
2023/12/22 05:29:14;;;;;;;14.02;2.47;;;;;;;;;;6229328;23;20510;-89
2023/12/22 05:31:40;;;;;;;13.00;2.10;;;;;;;;;;6206938;23;20337;-91
2023/12/22 05:34:06;;;;;;;15.70;2.28;;;;;;;;;;6178749;23;20100;-89
2023/12/22 05:36:32;;;;;;;18.42;2.35;;;;;;;;;;6205330;23;20707;-89
2023/12/22 05:38:58;;;;;;;14.75;2.53;;;;;;;;;;6177386;23;20020;-89
2023/12/22 05:41:24;;;;;;;12.38;2.88;;;;;;;;;;6182596;23;20028;-89
2023/12/22 05:43:53;;;;;;;18.02;3.17;;;;;;;;;;6208178;23;20020;-89
2023/12/22 05:46:19;;;;;;;17.33;2.65;;;;;;;;;;6156563;23;20012;-89
2023/12/22 05:48:45;;;;;;;13.98;2.13;;;;;;;;;;6180300;23;20027;-88
2023/12/22 05:51:13;;;;;;;14.18;2.50;;;;;;;;;;6203378;23;20601;-89
2023/12/22 05:53:42;;;;;;;12.48;2.65;;;;;;;;;;6202301;22;20059;-89
2023/12/22 05:56:21;;;;;;;12.27;1.80;;;;;;;;;;6222635;22;20681;-89
2023/12/22 05:58:47;;;;;;;;;;;;;;;;;;6208919;22;20079;-88
2023/12/22 06:01:16;;;;;;;13.65;2.42;;;;;;;;;;6233649;22;19942;-88
2023/12/22 06:03:42;;;;;;;21.17;2.67;;;;;;;;;;6208871;22;20016;-89
2023/12/22 06:06:08;;;;;;;10.98;2.17;;;;;;;;;;6235373;22;20012;-89
2023/12/22 06:08:34;;;;;;;12.82;1.90;;;;;;;;;;6213176;22;20020;-88
2023/12/22 06:11:00;;;;;;;11.32;2.20;;;;;;;;;;6235838;22;20019;-88
2023/12/22 06:13:29;;;;;;;13.10;2.65;;;;;;;;;;6237606;22;20020;-88
2023/12/22 06:15:55;;;;;;;7.30;1.67;;;;;;;;;;6208525;22;20016;-89
2023/12/22 06:18:23;;;;;;;13.48;2.33;;;;;;;;;;6237020;22;20108;-88
2023/12/22 06:20:49;;;;;;;;;;;;;;;;;;6186249;22;20016;-88
2023/12/22 06:23:15;;;;;;;9.80;2.30;;;;;;;;;;6261842;22;20251;-88
2023/12/22 06:25:41;;;;;;;13.40;2.00;;;;;;;;;;6209711;22;20055;-89
2023/12/22 06:28:08;;;;;;;11.77;2.58;;;;;;;;;;6207761;22;20027;-89
2023/12/22 06:30:35;;;;;;;12.30;2.22;;;;;;;;;;6210651;22;20055;-89
2023/12/22 06:33:01;;;;;;;11.23;1.92;;;;;;;;;;6208970;22;20081;-89
2023/12/22 06:35:27;;;;;;;9.10;1.80;;;;;;;;;;6236115;22;20394;-88
2023/12/22 06:37:54;;;;;;;9.57;2.25;;;;;;;;;;6235540;22;20023;-88
2023/12/22 06:40:20;;;;;;;9.75;1.63;;;;;;;;;;6187024;22;20448;-88
2023/12/22 06:42:47;;;;;;;9.65;1.60;;;;;;;;;;6236821;22;20015;-87
2023/12/22 06:45:13;;;;;;;7.57;1.60;;;;;;;;;;6209598;22;20026;-89
2023/12/22 06:47:39;;;;;;;13.27;2.35;;;;;;;;;;6186923;22;20026;-88
2023/12/22 06:50:06;;;;;;;9.13;1.60;;;;;;;;;;6235240;22;20468;-88
2023/12/22 06:52:32;;;;;;;9.25;1.55;;;;;;;;;;6237670;22;20030;-88
2023/12/22 06:54:58;;;;;;;14.07;2.35;;;;;;;;;;6235858;22;20020;-88
2023/12/22 06:57:24;;;;;;;12.60;2.47;;;;;;;;;;6213836;22;20098;-87
2023/12/22 06:59:53;;;;;;;12.60;1.67;;;;;;;;;;6236804;22;20451;-88
2023/12/22 07:02:19;;;;;;;14.48;2.00;;;;;;;;;;6215169;22;20022;-88
2023/12/22 07:05:07;;;;;;;9.15;1.70;;;;;;;;;;6212985;22;20867;-88
2023/12/22 07:07:33;;;;;;;8.77;1.73;;;;;;;;;;6237929;22;20023;-88
2023/12/22 07:09:59;;;;;;;7.93;1.55;;;;;;;;;;6234437;22;20721;-88
2023/12/22 07:12:25;;;;;;;15.18;2.05;;;;;;;;;;6212523;22;20107;-88
2023/12/22 07:14:54;;;;;;;11.43;3.10;;;;;;;;;;6236156;22;20420;-86
2023/12/22 07:17:20;;;;;;;14.50;2.58;;;;;;;;;;6207235;22;20020;-85
2023/12/22 07:19:46;;;;;;;6.85;1.83;;;;;;;;;;6185166;22;20015;-86
2023/12/22 07:22:15;;;;;;;10.65;2.10;;;;;;;;;;6182906;22;20027;-85
2023/12/22 07:24:41;;;;;;;9.30;1.48;;;;;;;;;;6211286;22;20039;-86
2023/12/22 07:27:07;;;;;;;14.43;2.17;;;;;;;;;;6208947;22;20020;-86
2023/12/22 07:29:33;;;;;;;13.00;2.00;;;;;;;;;;6210195;22;20189;-85
2023/12/22 07:31:59;;;;;;;11.75;1.67;;;;;;;;;;6210018;22;20599;-86
2023/12/22 07:34:25;;;;;;;8.75;1.70;;;;;;;;;;6235859;22;20432;-86
2023/12/22 07:36:53;;;;;;;12.05;1.90;;;;;;;;;;6210142;22;20081;-86
2023/12/22 07:39:19;;;;;;;12.07;2.80;;;;;;;;;;6212086;22;20019;-86
2023/12/22 07:41:45;;;;;;;15.43;1.70;;;;;;;;;;6212915;22;20050;-86
2023/12/22 07:44:32;;;;;;;14.13;1.88;;;;;;;;;;6182473;22;20098;-86
2023/12/22 07:47:01;;;;;;;15.30;1.83;;;;;;;;;;6233695;22;20026;-86
2023/12/22 07:49:27;;;;;;;8.43;1.95;;;;;;;;;;6184673;22;20016;-86
2023/12/22 07:51:53;;;;;;;12.40;2.65;;;;;;;;;;6209323;22;20594;-86
2023/12/22 07:54:27;;;;;;;18.42;2.45;;;;;;;;;;6186427;22;20043;-86
2023/12/22 07:56:53;;;;;;;5.70;1.35;;;;;;;;;;6185395;22;20026;-86
2023/12/22 07:59:19;;;;;;;12.10;1.90;;;;;;;;;;6210233;22;20011;-86
2023/12/22 08:01:48;;;;;;;10.32;1.75;;;;;;;;;;6183198;22;20020;-86
2023/12/22 08:04:14;;;;;;;;;;;;;;;;;;6210775;22;20016;-86
2023/12/22 08:06:45;;;;;;;9.15;1.63;;;;;;;;;;6211819;22;19918;-86
2023/12/22 08:09:17;;;;;;;9.73;2.38;;;;;;;;;;6185861;22;20020;-86
2023/12/22 08:11:47;;;;;;;9.70;2.30;;;;;;;;;;6187537;22;20035;-86
2023/12/22 08:14:13;;;;;;;9.70;2.63;;;;;;;;;;6209937;22;20512;-86
2023/12/22 08:16:51;;;;;;;14.70;2.38;;;;;;;;;;6184776;22;20030;-86
2023/12/22 08:19:22;;;;;;;11.35;1.85;;;;;;;;;;6184322;22;20012;-86
2023/12/22 08:21:50;;;;;;;10.25;1.25;;;;;;;;;;6211779;22;20011;-85
2023/12/22 08:24:22;;;;;;;12.55;2.58;;;;;;;;;;6186407;22;20022;-86
2023/12/22 08:26:48;;;;;;;12.60;1.98;;;;;;;;;;6187080;22;20014;-86
2023/12/22 08:29:15;;;;;;;16.45;2.22;;;;;;;;;;6209280;22;20019;-86
2023/12/22 08:31:47;;;;;;;11.85;1.63;;;;;;;;;;6187569;22;20099;-86
2023/12/22 08:34:13;;;;;;;;;;;;;;;;;;6184929;22;20030;-86
2023/12/22 08:36:39;;;;;;;10.05;1.90;;;;;;;;;;6211392;22;19933;-86
2023/12/22 08:39:08;;;;;;;14.02;2.40;;;;;;;;;;6210628;22;20019;-87
2023/12/22 08:41:37;;;;;;;11.90;2.25;;;;;;;;;;6212589;22;20395;-89
2023/12/22 08:44:09;;;;;;;12.15;1.60;;;;;;;;;;6212364;22;20019;-89
2023/12/22 08:46:38;;;;;;;13.88;3.25;;;;;;;;;;6213294;22;20363;-86
2023/12/22 08:49:07;;;;;;;8.55;1.63;;;;;;;;;;6192448;22;20026;-87
2023/12/22 08:51:33;;;;;;;11.77;1.77;;;;;;;;;;6189905;22;20076;-87
2023/12/22 08:54:03;;;;;;;11.55;1.50;;;;;;;;;;6209891;22;20038;-87
2023/12/22 08:56:30;;;;;;;9.23;1.42;;;;;;;;;;6184311;22;20142;-87
2023/12/22 08:58:58;;;;;;;11.57;2.28;;;;;;;;;;6207637;22;20015;-87
2023/12/22 09:01:24;;;;;;;;;;;;;;;;;;6208603;22;20018;-87
2023/12/22 09:04:08;;;;;;;7.95;1.20;;;;;;;;;;6235264;22;19981;-87
2023/12/22 09:06:34;;;;;;;11.27;1.73;;;;;;;;;;6210873;22;20051;-86
2023/12/22 09:09:00;;;;;;;4.95;1.63;;;;;;;;;;6208140;22;20138;-87
2023/12/22 09:11:29;;;;;;;8.25;1.25;;;;;;;;;;6212620;22;20077;-87
2023/12/22 09:14:00;;;;;;;7.57;0.95;;;;;;;;;;6206410;22;20073;-87
2023/12/22 09:16:34;;;;;;;4.15;1.00;;;;;;;;;;6184586;22;20023;-86
2023/12/22 09:19:00;;;;;;;3.22;0.80;;;;;;;;;;6184653;22;20024;-86
2023/12/22 09:21:29;;;;;;;5.32;1.20;;;;;;;;;;6185590;22;20015;-86
2023/12/22 09:23:55;;;;;;;;;;;;;;;;;;6206709;22;20072;-88
2023/12/22 09:26:26;;;;;;;8.10;1.08;;;;;;;;;;6210785;22;19915;-87
2023/12/22 09:28:55;;;;;;;4.15;0.80;;;;;;;;;;6204925;22;20094;-88
2023/12/22 09:31:25;;;;;;;2.63;1.10;;;;;;;;;;6183232;22;20034;-88
2023/12/22 09:33:51;;;;;;;5.45;1.08;;;;;;;;;;6178346;22;20075;-88
2023/12/22 09:36:21;;;;;;;4.07;0.68;;;;;;;;;;6207547;22;20030;-87
2023/12/22 09:38:51;;;;;;;5.00;0.77;;;;;;;;;;6209390;22;20023;-87
2023/12/22 09:41:21;;;;;;;3.75;0.70;;;;;;;;;;6206579;22;20054;-87
2023/12/22 09:43:47;;;;;;;6.03;1.00;;;;;;;;;;6233662;22;20022;-88
2023/12/22 09:46:19;;;;;;;4.22;0.73;;;;;;;;;;6183927;22;20051;-87
2023/12/22 09:48:48;;;;;;;2.50;0.68;;;;;;;;;;6178799;22;20023;-88
2023/12/22 09:51:17;;;;;;;;;;;;;;;;;;6201855;22;20024;-87
2023/12/22 09:53:46;;;;;;;3.20;0.90;;;;;;;;;;6207400;22;19919;-87
2023/12/22 09:56:12;;;;;;;2.85;1.35;;;;;;;;;;6180688;22;20089;-86
2023/12/22 09:58:40;;;;;;;6.78;1.60;;;;;;;;;;6233223;22;20022;-86
2023/12/22 10:01:08;;;;;;;4.07;1.30;;;;;;;;;;6180838;22;20027;-87
2023/12/22 10:03:40;;;;;;;6.28;1.17;;;;;;;;;;6206720;22;20016;-87
2023/12/22 10:06:06;;;;;;;4.72;1.00;;;;;;;;;;6177521;22;20493;-87
2023/12/22 10:08:33;;;;;;;3.60;1.33;;;;;;;;;;6175317;22;20371;-87
2023/12/22 10:10:59;;;;;;;4.10;0.80;;;;;;;;;;6205519;22;20020;-87
2023/12/22 10:13:27;;;;;;;4.93;0.80;;;;;;;;;;6208814;22;20026;-87
2023/12/22 10:15:56;;;;;;;4.82;0.85;;;;;;;;;;6206004;22;20091;-87
2023/12/22 10:18:22;;;;;;;4.22;1.00;;;;;;;;;;6185533;22;20400;-87
2023/12/22 10:20:57;;;;;;;4.70;1.20;;;;;;;;;;6183133;22;20019;-87
2023/12/22 10:23:23;;;;;;;3.78;1.42;;;;;;;;;;6182788;22;20015;-87
2023/12/22 10:26:09;;;;;;;6.15;1.20;;;;;;;;;;6207025;22;20019;-86
2023/12/22 10:28:35;;;;;;;6.82;1.23;;;;;;;;;;6212525;22;20027;-87
2023/12/22 10:31:09;;;;;;;4.32;1.10;;;;;;;;;;6180874;22;20022;-87
2023/12/22 10:33:53;;;;;;;5.43;1.20;;;;;;;;;;6182905;22;20042;-88
2023/12/22 10:36:22;;;;;;;6.95;1.15;;;;;;;;;;6188714;22;20470;-87
2023/12/22 10:39:06;;;;;;;3.65;1.83;;;;;;;;;;6185144;22;20051;-88
2023/12/22 10:41:40;;;;;;;3.55;1.15;;;;;;;;;;6186767;22;20019;-87
2023/12/22 10:44:22;;;;;;;9.68;1.23;;;;;;;;;;6180048;22;20035;-87
2023/12/22 10:46:48;;;;;;;5.82;1.38;;;;;;;;;;6183534;22;20043;-87
2023/12/22 10:49:15;;;;;;;5.82;1.75;;;;;;;;;;6208049;22;20042;-87
2023/12/22 10:51:43;;;;;;;9.25;1.65;;;;;;;;;;6187676;22;20084;-87
2023/12/22 10:54:18;;;;;;;6.53;1.20;;;;;;;;;;6183907;22;20016;-87
2023/12/22 10:56:54;;;;;;;;;;;;;;;;;;;;;
2023/12/22 10:59:28;;;;;;;4.47;1.02;;;;;;;;;;6212268;22;20331;-87
2023/12/22 11:01:58;;;;;;;6.68;1.20;;;;;;;;;;6185196;22;20021;-87
2023/12/22 11:04:26;;;;;;;6.20;1.45;;;;;;;;;;6182562;22;20022;-87
2023/12/22 11:06:59;;;;;;;10.05;1.50;;;;;;;;;;6206850;22;20027;-87
2023/12/22 11:09:33;;;;;;;13.80;1.55;;;;;;;;;;6215923;22;20079;-87
2023/12/22 11:12:04;;;;;;;7.13;1.42;;;;;;;;;;6230748;22;20461;-87
2023/12/22 11:14:32;;;;;;;6.90;1.17;;;;;;;;;;6188071;22;20015;-87
2023/12/22 11:16:58;;;;;;;7.53;1.35;;;;;;;;;;6208653;22;20015;-86
2023/12/22 11:19:53;;;;;;;12.15;2.05;;;;;;;;;;6270065;22;20156;-87
2023/12/22 11:22:19;;;;;;;11.25;1.73;;;;;;;;;;6214828;22;20448;-87
2023/12/22 11:24:59;;;;;;;4.93;1.27;;;;;;;;;;6187037;22;20039;-87
2023/12/22 11:27:37;;;;;;;4.88;1.95;;;;;;;;;;6212840;22;20024;-87
2023/12/22 11:30:08;;;;;;;6.88;1.20;;;;;;;;;;6236150;22;20050;-86
2023/12/22 11:33:06;;;;;;;15.23;1.63;;;;;;;;;;6238311;22;20027;-88
2023/12/22 11:35:38;;;;;;;8.27;1.73;;;;;;;;;;6216526;22;20015;-87
2023/12/22 11:38:14;;;;;;;8.57;2.00;;;;;;;;;;6238570;22;20027;-87
2023/12/22 11:40:51;;;;;;;14.60;2.20;;;;;;;;;;6240644;22;20011;-87
2023/12/22 11:43:21;;;;;;;9.20;1.42;;;;;;;;;;6187404;22;20023;-87
2023/12/22 11:45:52;;;;;;;4.63;1.40;;;;;;;;;;6212846;22;20023;-87
2023/12/22 11:48:21;;;;;;;5.65;1.30;;;;;;;;;;6217784;22;20015;-87
2023/12/22 11:50:50;;;;;;;5.75;1.67;;;;;;;;;;6211971;22;20486;-87
2023/12/22 11:53:23;;;;;;;5.00;2.17;;;;;;;;;;6165075;23;20034;-87
2023/12/22 11:56:08;;;;;;;6.47;1.15;;;;;;;;;;6156318;23;20020;-87
2023/12/22 11:58:54;;;;;;;3.40;1.00;;;;;;;;;;6183908;23;20020;-87
2023/12/22 12:01:28;;;;;;;6.20;1.20;;;;;;;;;;6181906;23;20054;-87
2023/12/22 12:03:59;;;;;;;12.63;1.83;;;;;;;;;;6177511;23;20040;-87
2023/12/22 12:06:37;;;;;;;3.00;1.60;;;;;;;;;;6233420;23;20083;-87
2023/12/22 12:09:17;;;;;;;5.68;1.45;;;;;;;;;;6200461;23;20358;-87
2023/12/22 12:11:58;;;;;;;5.72;1.48;;;;;;;;;;6180663;23;20019;-87
2023/12/22 12:14:32;;;;;;;8.43;1.45;;;;;;;;;;6208528;23;20063;-87
2023/12/22 12:17:10;;;;;;;3.88;1.02;;;;;;;;;;6206183;23;20456;-87
2023/12/22 12:19:39;;;;;;;3.70;0.98;;;;;;;;;;6183051;23;20087;-87
2023/12/22 12:22:05;;;;;;;9.73;1.52;;;;;;;;;;6157985;23;20065;-87
2023/12/22 12:24:31;;;;;;;12.60;1.60;;;;;;;;;;6183029;23;20024;-87
2023/12/22 12:26:57;;;;;;;5.80;1.30;;;;;;;;;;6181641;23;20014;-87
2023/12/22 12:29:23;;;;;;;7.47;1.50;;;;;;;;;;6184410;23;20012;-87
2023/12/22 12:31:49;;;;;;;8.88;1.67;;;;;;;;;;6210495;23;20062;-87
2023/12/22 12:34:17;;;;;;;8.15;1.30;;;;;;;;;;6158502;23;20023;-87
2023/12/22 12:36:43;;;;;;;7.50;1.47;;;;;;;;;;6185509;23;20043;-87
2023/12/22 12:39:10;;;;;;;8.90;1.67;;;;;;;;;;6205279;23;20405;-87
2023/12/22 12:41:46;;;;;;;6.57;1.58;;;;;;;;;;6183440;23;20012;-87
2023/12/22 12:44:12;;;;;;;6.85;1.30;;;;;;;;;;6206691;23;20177;-87
2023/12/22 12:46:38;;;;;;;10.35;1.60;;;;;;;;;;6208968;23;20016;-87
2023/12/22 12:49:05;;;;;;;5.82;1.17;;;;;;;;;;6156728;23;20027;-87
2023/12/22 12:51:41;;;;;;;13.23;1.80;;;;;;;;;;6155243;23;20023;-87
2023/12/22 12:54:07;;;;;;;4.95;1.25;;;;;;;;;;6206182;23;20031;-87
2023/12/22 12:56:51;;;;;;;8.05;1.25;;;;;;;;;;6182781;23;20016;-87
2023/12/22 12:59:18;;;;;;;4.43;1.33;;;;;;;;;;6159583;23;20076;-87
2023/12/22 13:01:44;;;;;;;7.55;1.20;;;;;;;;;;6158773;23;20012;-87
2023/12/22 13:04:12;;;;;;;9.85;1.63;;;;;;;;;;6155784;23;20481;-88
2023/12/22 13:06:48;;;;;;;6.53;1.55;;;;;;;;;;6179348;23;20070;-88
2023/12/22 13:09:14;;;;;;;6.22;1.17;;;;;;;;;;6175908;23;20440;-89
2023/12/22 13:11:42;;;;;;;5.20;1.02;;;;;;;;;;6179648;23;20138;-89
2023/12/22 13:14:08;;;;;;;4.75;0.93;;;;;;;;;;6177131;23;20024;-89
2023/12/22 13:16:34;;;;;;;8.07;1.20;;;;;;;;;;6182562;23;20073;-88
2023/12/22 13:19:01;;;;;;;6.30;1.35;;;;;;;;;;6203095;23;20024;-88
2023/12/22 13:21:27;;;;;;;6.32;0.85;;;;;;;;;;6180081;23;20467;-88
2023/12/22 13:24:12;;;;;;;6.95;1.58;;;;;;;;;;6179230;23;20043;-88
2023/12/22 13:26:38;;;;;;;5.97;1.27;;;;;;;;;;6207194;23;20031;-89
2023/12/22 13:29:04;;;;;;;5.65;1.40;;;;;;;;;;6204029;23;20360;-88
2023/12/22 13:31:31;;;;;;;3.08;1.63;;;;;;;;;;6158794;23;20016;-88
2023/12/22 13:33:57;;;;;;;3.63;1.10;;;;;;;;;;6208009;23;20026;-89
2023/12/22 13:36:23;;;;;;;3.63;1.27;;;;;;;;;;6208644;23;20095;-89
2023/12/22 13:38:49;;;;;;;8.43;1.33;;;;;;;;;;6209209;23;20054;-88
2023/12/22 13:41:15;;;;;;;7.15;1.02;;;;;;;;;;6181585;23;20062;-88
2023/12/22 13:43:41;;;;;;;3.53;1.10;;;;;;;;;;6158908;23;20029;-90
2023/12/22 13:46:07;;;;;;;4.93;1.05;;;;;;;;;;6153776;23;20099;-91
2023/12/22 13:48:37;;;;;;;7.68;1.40;;;;;;;;;;6152903;23;20077;-89
2023/12/22 13:51:03;;;;;;;8.00;1.55;;;;;;;;;;6199662;23;20020;-89
2023/12/22 13:53:29;;;;;;;4.47;1.17;;;;;;;;;;6223283;23;20594;-89
2023/12/22 13:55:58;;;;;;;6.20;1.35;;;;;;;;;;6178220;23;20067;-89
2023/12/22 13:58:24;;;;;;;6.05;1.60;;;;;;;;;;6178524;23;20261;-90
2023/12/22 14:25:35;;;;;;;;;;;;;;;;;;;;;
2023/12/22 16:20:34;;;;;;;4.25;0.85;;;;;;;;;;6245996;22;20394;-88
2023/12/22 16:23:04;;;;;;;4.85;0.95;;;;;;;;;;6187722;22;20347;-88
2023/12/22 16:25:43;;;;;;;4.30;1.00;;;;;;;;;;6233988;22;20043;-88
2023/12/22 16:28:12;;;;;;;3.30;0.88;;;;;;;;;;6209411;22;20092;-87
2023/12/22 16:30:40;;;;;;;5.97;1.05;;;;;;;;;;6231667;22;20065;-88
2023/12/22 16:33:06;;;;;;;8.50;1.20;;;;;;;;;;6181441;22;20118;-88
2023/12/22 16:35:38;;;;;;;3.58;0.80;;;;;;;;;;6207388;22;20027;-88
2023/12/22 16:38:13;;;;;;;6.35;1.58;;;;;;;;;;6184198;22;20074;-88
2023/12/22 16:40:44;;;;;;;7.80;1.10;;;;;;;;;;6186544;22;20016;-88
2023/12/22 16:43:13;;;;;;;8.25;1.25;;;;;;;;;;6231835;22;20034;-88
2023/12/22 16:46:13;;;;;;;5.32;0.80;;;;;;;;;;6184562;22;20019;-88
2023/12/22 16:56:15;;;;;;;;;;;;;;;;;;;;;
2023/12/22 17:09:52;;;;;;;5.32;1.30;;;;;;;;;;6134747;23;20104;-87
2023/12/22 17:15:36;;;;;;;2.63;0.95;;;;;;;;;;6126574;23;20719;-88
2023/12/22 17:18:23;;;;;;;12.90;3.20;;;;;;;;;;6209474;22;20023;-88
2023/12/22 17:21:11;;;;;;;6.20;1.13;;;;;;;;;;6227799;23;20578;-88
2023/12/22 17:23:38;;;;;;;6.57;1.42;;;;;;;;;;6172356;23;20055;-87
2023/12/22 17:26:04;;;;;;;7.50;1.25;;;;;;;;;;6170701;23;20021;-88
2023/12/22 17:28:35;;;;;;;7.40;2.10;;;;;;;;;;6199957;23;20024;-88
2023/12/22 17:31:05;;;;;;;6.68;1.45;;;;;;;;;;6169374;23;20385;-88
2023/12/22 17:33:35;;;;;;;8.40;1.38;;;;;;;;;;6173052;23;20081;-88
2023/12/22 17:36:10;;;;;;;4.28;1.35;;;;;;;;;;6195332;23;20017;-88
2023/12/22 17:38:40;;;;;;;6.18;1.10;;;;;;;;;;6173380;23;20095;-87
2023/12/22 17:41:24;;;;;;;6.28;0.98;;;;;;;;;;6169176;23;20154;-87
2023/12/22 17:43:53;;;;;;;8.10;1.17;;;;;;;;;;6196171;23;20025;-87
2023/12/22 17:46:19;;;;;;;4.47;1.35;;;;;;;;;;6172681;23;20436;-88
2023/12/22 17:54:47;;;;;;;6.85;1.20;;;;;;;;;;6172856;23;20037;-87
2023/12/22 17:57:35;;;;;;;7.93;1.23;;;;;;;;;;6169197;23;20028;-88
2023/12/22 18:00:46;;;;;;;3.75;1.27;;;;;;;;;;6196597;23;20016;-88
2023/12/22 18:04:02;;;;;;;5.32;0.90;;;;;;;;;;6085030;23;20632;-88
2023/12/22 18:11:00;;;;;;;6.05;1.45;;;;;;;;;;5936252;23;20473;-91
2023/12/22 18:20:25;;;;;;;;;;;;;;;;;;;;;
2023/12/22 18:23:31;;;;;;;5.28;1.27;;;;;;;;;;6080422;23;20048;-88
2023/12/22 18:26:09;;;;;;;4.63;1.27;;;;;;;;;;6107447;23;20324;-88
2023/12/22 18:29:15;;;;;;;;;;;;;;;;;;;;;
2023/12/22 18:31:41;;;;;;;5.70;1.13;;;;;;;;;;6175866;23;20031;-87